Scranton/Wilkes-Barre, Pennsylvania
Current Conditions -  °F | °C
As of 8:54 AM on Wednesday 26 Nov 2014 (Local Time) from KAVP Reporting Station
Light Snow Light Snow  
Wind Chill: 30°   Ceiling: 900
Heat Index: 34°   Visibility: 0.75mi
Dew Point: 31°   Wind: 5mph
Humidity: 89%   Direction: NA
Pressure: 30.12"   Gusts: NA
Location:  41.33°N, 75.73°W
Report Text: KAVP 261354Z VRB04KT 3/4SM R04/4500VP6000FT -SN BR VV009 01/M01 A3012 RMK AO2 SNB11 SLP204 P0003 T00111006
Loading
Personal Weather Stations






























Interactive Weather Map New forecast layout! Learn more

10-Day Weather Forecast

Advertisements
Track Severe Weather on mobile